createdAt,value
2018-08-27T00:01:59.091Z,3.00
2018-08-27T00:04:29.121Z,2.50
2018-08-27T00:06:59.204Z,2.80
2018-08-27T00:09:29.236Z,2.60
2018-08-27T00:11:59.221Z,2.50
2018-08-27T00:14:29.242Z,2.20
2018-08-27T00:16:59.353Z,2.50
2018-08-27T00:19:29.664Z,2.60
2018-08-27T00:21:59.677Z,2.70
2018-08-27T00:24:29.678Z,2.47
2018-08-27T00:26:59.667Z,1.87
2018-08-27T00:29:29.734Z,2.57
2018-08-27T00:31:59.826Z,2.17
2018-08-27T00:34:29.911Z,2.00
2018-08-27T00:36:59.893Z,1.87
2018-08-27T00:39:29.932Z,2.10
2018-08-27T00:42:00.019Z,2.60
2018-08-27T00:44:30.127Z,2.00
2018-08-27T00:47:00.255Z,2.13
2018-08-27T00:49:30.435Z,2.00
2018-08-27T00:52:00.490Z,1.70
2018-08-27T00:54:30.554Z,1.90
2018-08-27T00:57:00.675Z,1.80
2018-08-27T00:59:30.765Z,1.73
2018-08-27T01:02:00.866Z,1.90
2018-08-27T01:04:30.894Z,1.93
2018-08-27T01:07:01.049Z,1.77
2018-08-27T01:09:31.113Z,2.13
2018-08-27T01:12:01.106Z,1.70
2018-08-27T01:14:31.108Z,1.60
2018-08-27T01:17:01.828Z,1.80
2018-08-27T01:19:31.828Z,1.63
2018-08-27T01:22:02.906Z,2.20
2018-08-27T01:24:32.911Z,1.77
2018-08-27T01:27:02.998Z,1.90
2018-08-27T01:29:33.074Z,1.70
2018-08-27T01:32:35.301Z,1.83
2018-08-27T01:35:05.318Z,1.23
2018-08-27T01:37:35.459Z,1.70
2018-08-27T01:40:05.478Z,1.50
2018-08-27T01:42:35.521Z,1.27
2018-08-27T01:45:06.721Z,1.93
2018-08-27T01:47:36.738Z,1.50
2018-08-27T01:50:06.953Z,1.87
2018-08-27T01:52:37.022Z,1.60
2018-08-27T01:55:07.049Z,1.73
2018-08-27T01:57:43.265Z,1.80
2018-08-27T02:00:13.309Z,1.93
2018-08-27T02:02:43.358Z,1.40
2018-08-27T02:05:13.314Z,1.67
2018-08-27T02:07:43.366Z,1.20
2018-08-27T02:10:13.412Z,1.30
2018-08-27T02:12:43.464Z,1.70
2018-08-27T02:15:13.470Z,1.60
2018-08-27T02:17:43.492Z,1.63
2018-08-27T02:20:13.589Z,1.33
2018-08-27T02:22:43.650Z,1.40
2018-08-27T02:25:13.630Z,1.10
2018-08-27T02:27:43.682Z,1.83
2018-08-27T02:30:13.731Z,1.40
2018-08-27T02:32:50.500Z,1.70
2018-08-27T02:35:20.456Z,1.30
2018-08-27T02:37:50.514Z,1.20
2018-08-27T02:40:20.498Z,1.20
2018-08-27T02:42:50.561Z,1.57
2018-08-27T02:45:20.643Z,1.40
2018-08-27T02:47:50.586Z,1.37
2018-08-27T02:50:20.585Z,1.20
2018-08-27T02:52:50.626Z,1.20
2018-08-27T02:55:20.625Z,1.40
2018-08-27T02:57:50.653Z,1.17
2018-08-27T03:00:20.620Z,1.50
2018-08-27T03:02:50.696Z,1.57
2018-08-27T03:05:20.719Z,1.20
2018-08-27T03:07:50.697Z,1.23
2018-08-27T03:10:20.757Z,1.17
2018-08-27T03:12:50.816Z,1.70
2018-08-27T03:15:20.761Z,1.30
2018-08-27T03:17:50.777Z,1.30
2018-08-27T03:20:20.810Z,1.33
2018-08-27T03:22:50.823Z,0.90
2018-08-27T03:25:20.878Z,1.20
2018-08-27T03:27:50.953Z,1.20
2018-08-27T03:30:20.972Z,1.43
2018-08-27T03:32:51.082Z,1.37
2018-08-27T03:35:21.084Z,1.33
2018-08-27T03:37:51.111Z,1.17
2018-08-27T03:40:21.154Z,1.10
2018-08-27T03:42:51.092Z,1.57
2018-08-27T03:45:21.114Z,0.90
2018-08-27T03:47:51.081Z,0.90
2018-08-27T03:50:21.122Z,1.17
2018-08-27T03:52:51.143Z,1.03
2018-08-27T03:55:21.132Z,1.17
2018-08-27T03:57:51.109Z,1.17
2018-08-27T04:00:21.113Z,1.23
2018-08-27T04:02:51.056Z,1.10
2018-08-27T04:05:27.318Z,0.93
2018-08-27T04:07:58.438Z,1.40
2018-08-27T04:10:28.546Z,1.03
2018-08-27T04:12:58.609Z,1.40
2018-08-27T04:15:28.658Z,1.10
2018-08-27T04:17:58.745Z,1.30
2018-08-27T04:20:28.746Z,1.20
2018-08-27T04:22:58.733Z,1.00
2018-08-27T04:25:28.713Z,1.20
2018-08-27T04:27:58.754Z,1.60
2018-08-27T04:30:28.730Z,1.20
2018-08-27T04:32:58.734Z,1.13
2018-08-27T04:35:28.730Z,1.53
2018-08-27T04:37:58.830Z,1.77
2018-08-27T04:40:28.813Z,1.50
2018-08-27T04:42:58.807Z,1.00
2018-08-27T04:45:28.777Z,1.30
2018-08-27T04:47:58.820Z,1.27
2018-08-27T04:50:28.785Z,1.00
2018-08-27T04:52:58.871Z,1.20
2018-08-27T04:55:28.881Z,1.07
2018-08-27T04:57:58.841Z,1.33
2018-08-27T05:00:37.590Z,1.40
2018-08-27T05:03:08.378Z,1.20
2018-08-27T05:05:38.606Z,1.50
2018-08-27T05:08:08.713Z,1.93
2018-08-27T05:10:38.752Z,1.70
2018-08-27T05:13:08.808Z,1.07
2018-08-27T05:15:38.907Z,1.20
2018-08-27T05:18:08.964Z,1.20
2018-08-27T05:20:38.916Z,1.53
2018-08-27T05:23:08.953Z,1.07
2018-08-27T05:25:38.954Z,1.33
2018-08-27T05:28:08.934Z,1.40
2018-08-27T05:30:38.952Z,1.43
2018-08-27T05:33:08.984Z,1.40
2018-08-27T05:35:39.007Z,1.40
2018-08-27T05:38:09.064Z,1.30
2018-08-27T05:40:39.081Z,1.40
2018-08-27T05:43:09.166Z,1.70
2018-08-27T05:45:39.113Z,0.93
2018-08-27T05:48:09.199Z,2.33
2018-08-27T05:50:39.239Z,1.17
2018-08-27T05:53:09.238Z,1.10
2018-08-27T05:55:39.256Z,1.10
2018-08-27T05:58:09.248Z,1.33
2018-08-27T06:00:39.883Z,1.00
2018-08-27T06:03:09.959Z,1.50
2018-08-27T06:05:39.986Z,1.20
2018-08-27T06:08:10.113Z,1.00
2018-08-27T06:10:40.171Z,1.17
2018-08-27T06:13:10.236Z,1.20
2018-08-27T06:15:40.337Z,1.30
2018-08-27T06:18:10.385Z,1.30
2018-08-27T06:20:40.491Z,1.10
2018-08-27T06:23:10.569Z,1.33
2018-08-27T06:25:40.675Z,1.37
2018-08-27T06:28:10.727Z,0.80
2018-08-27T06:30:40.708Z,0.90
2018-08-27T06:33:10.774Z,1.20
2018-08-27T06:35:41.453Z,0.80
2018-08-27T06:38:11.479Z,0.90
2018-08-27T06:40:41.563Z,1.10
2018-08-27T06:43:11.585Z,1.20
2018-08-27T06:45:41.603Z,0.90
2018-08-27T06:48:11.598Z,1.00
2018-08-27T06:50:41.589Z,1.30
2018-08-27T06:53:11.704Z,1.30
2018-08-27T06:55:41.718Z,1.20
2018-08-27T06:58:11.732Z,1.33
2018-08-27T07:00:41.767Z,1.33
2018-08-27T07:03:12.333Z,1.27
2018-08-27T07:05:42.338Z,1.00
2018-08-27T07:08:12.438Z,1.17
2018-08-27T07:10:42.486Z,0.90
2018-08-27T07:13:12.478Z,1.33
2018-08-27T07:15:42.477Z,1.40
2018-08-27T07:18:12.608Z,1.00
2018-08-27T07:20:42.636Z,1.90
2018-08-27T07:23:12.649Z,1.10
2018-08-27T07:25:42.651Z,1.17
2018-08-27T07:28:12.637Z,1.30
2018-08-27T07:30:42.632Z,1.40
2018-08-27T07:33:12.686Z,1.03
2018-08-27T07:35:42.716Z,1.60
2018-08-27T07:38:12.814Z,1.10
2018-08-27T07:40:42.914Z,1.00
2018-08-27T07:43:12.925Z,1.23
2018-08-27T07:45:43.028Z,1.13
2018-08-27T07:48:13.038Z,1.00
2018-08-27T07:50:43.177Z,0.90
2018-08-27T07:53:13.042Z,1.70
2018-08-27T07:55:43.083Z,4.50
2018-08-27T07:58:13.074Z,1.70
2018-08-27T08:00:43.187Z,1.70
2018-08-27T08:03:13.180Z,1.03
2018-08-27T08:05:43.203Z,2.30
2018-08-27T08:08:13.331Z,1.57
2018-08-27T08:10:43.339Z,2.70
2018-08-27T08:13:13.535Z,5.27
2018-08-27T08:15:44.126Z,1.00
2018-08-27T08:18:19.067Z,1.20
2018-08-27T08:20:49.854Z,1.30
2018-08-27T08:23:19.995Z,1.30
2018-08-27T08:25:49.969Z,1.27
2018-08-27T08:28:20.041Z,1.30
2018-08-27T08:30:50.063Z,1.10
2018-08-27T08:33:20.080Z,1.03
2018-08-27T08:35:50.037Z,1.03
2018-08-27T08:38:20.026Z,1.17
2018-08-27T08:40:50.061Z,1.37
2018-08-27T08:43:20.057Z,0.93
2018-08-27T08:45:50.041Z,0.80
2018-08-27T08:48:20.079Z,1.40
2018-08-27T08:50:50.258Z,1.63
2018-08-27T08:53:20.311Z,1.13
2018-08-27T08:55:50.291Z,1.60
2018-08-27T08:58:20.360Z,1.03
2018-08-27T09:00:50.345Z,1.17
2018-08-27T09:03:20.394Z,1.53
2018-08-27T09:05:50.329Z,1.23
2018-08-27T09:08:20.421Z,1.10
2018-08-27T09:10:50.423Z,1.10
2018-08-27T09:13:20.452Z,1.10
2018-08-27T09:15:50.445Z,1.00
2018-08-27T09:18:20.482Z,1.30
2018-08-27T09:20:50.516Z,0.90
2018-08-27T09:23:20.501Z,0.90
2018-08-27T09:25:50.558Z,1.50
2018-08-27T09:28:20.580Z,1.13
2018-08-27T09:30:50.629Z,1.00
2018-08-27T09:33:20.646Z,1.10
2018-08-27T09:35:50.679Z,1.50
2018-08-27T09:38:20.753Z,1.40
2018-08-27T09:40:50.815Z,1.37
2018-08-27T09:43:20.830Z,1.37
2018-08-27T09:45:50.930Z,1.20
2018-08-27T09:48:20.857Z,1.03
2018-08-27T09:50:50.814Z,1.20
2018-08-27T09:53:20.905Z,1.23
2018-08-27T09:55:50.962Z,1.67
2018-08-27T09:58:21.039Z,1.70
2018-08-27T10:00:56.421Z,1.50
2018-08-27T10:03:26.472Z,1.47
2018-08-27T10:05:56.408Z,1.00
2018-08-27T10:08:26.529Z,1.17
2018-08-27T10:10:56.595Z,1.23
2018-08-27T10:13:26.569Z,1.60
2018-08-27T10:15:56.639Z,1.30
2018-08-27T10:18:26.716Z,1.40
2018-08-27T10:20:56.781Z,1.30
2018-08-27T10:23:26.827Z,1.10
2018-08-27T10:25:56.845Z,1.87
2018-08-27T10:28:27.089Z,0.93
2018-08-27T10:30:57.102Z,0.93
2018-08-27T10:33:27.117Z,1.30
2018-08-27T10:35:57.267Z,1.30
2018-08-27T10:38:27.372Z,1.50
2018-08-27T10:40:57.333Z,1.27
2018-08-27T10:43:27.345Z,1.23
2018-08-27T10:45:57.343Z,1.50
2018-08-27T10:48:27.326Z,2.77
2018-08-27T10:50:58.248Z,1.57
2018-08-27T10:53:28.493Z,2.00
2018-08-27T10:56:01.728Z,1.83
2018-08-27T10:58:31.818Z,1.27
2018-08-27T11:01:02.015Z,1.60
2018-08-27T11:03:32.126Z,1.30
2018-08-27T11:06:02.240Z,1.37
2018-08-27T11:08:32.310Z,1.70
2018-08-27T11:11:02.334Z,1.10
2018-08-27T11:13:32.382Z,1.60
2018-08-27T11:16:02.431Z,1.23
2018-08-27T11:18:32.496Z,1.30
2018-08-27T11:21:02.492Z,1.20
2018-08-27T11:23:32.506Z,1.20
2018-08-27T11:26:02.569Z,1.07
2018-08-27T11:28:32.711Z,1.50
2018-08-27T11:31:02.796Z,1.87
2018-08-27T11:33:32.795Z,1.67
2018-08-27T11:36:02.799Z,1.93
2018-08-27T11:38:32.975Z,1.67
2018-08-27T11:41:02.956Z,1.30
2018-08-27T11:43:33.094Z,1.27
2018-08-27T11:46:03.170Z,1.50
2018-08-27T11:48:33.268Z,1.27
2018-08-27T11:51:03.404Z,1.43
2018-08-27T11:53:33.405Z,1.30
2018-08-27T11:56:03.426Z,1.33
2018-08-27T11:58:33.490Z,1.40
2018-08-27T12:01:06.499Z,1.63
2018-08-27T12:03:36.579Z,1.30
2018-08-27T12:06:06.550Z,1.53
2018-08-27T12:08:36.629Z,1.20
2018-08-27T12:11:06.705Z,1.47
2018-08-27T12:13:36.940Z,1.27
2018-08-27T12:16:06.952Z,1.30
2018-08-27T12:18:37.009Z,1.10
2018-08-27T12:21:07.050Z,1.52
2018-08-27T12:23:37.113Z,2.17
2018-08-27T12:26:07.152Z,1.47
2018-08-27T12:28:37.359Z,1.50
2018-08-27T12:31:08.167Z,1.20
2018-08-27T12:33:38.155Z,1.10
2018-08-27T12:36:08.223Z,0.93
2018-08-27T12:38:38.399Z,1.70
2018-08-27T12:41:08.879Z,1.40
2018-08-27T12:43:39.329Z,1.40
2018-08-27T12:46:11.139Z,1.43
2018-08-27T12:48:41.811Z,1.07
2018-08-27T12:51:12.573Z,1.50
2018-08-27T12:53:43.170Z,1.73
2018-08-27T12:56:13.504Z,1.33
2018-08-27T12:58:47.054Z,0.90
2018-08-27T13:01:18.415Z,1.27
2018-08-27T13:03:48.576Z,0.90
2018-08-27T13:06:20.544Z,1.27
2018-08-27T13:08:50.678Z,1.00
2018-08-27T13:11:20.745Z,1.30
2018-08-27T13:13:50.893Z,1.17
2018-08-27T13:16:21.878Z,1.27
2018-08-27T13:18:51.913Z,1.43
2018-08-27T13:21:25.873Z,2.80
2018-08-27T13:23:56.406Z,3.47
2018-08-27T13:26:26.551Z,5.40
2018-08-27T13:28:56.590Z,4.87
2018-08-27T13:31:26.716Z,4.70
2018-08-27T13:33:56.882Z,4.40
2018-08-27T13:36:27.011Z,3.53
2018-08-27T13:38:57.036Z,3.27
2018-08-27T13:41:27.113Z,3.13
2018-08-27T13:43:57.198Z,4.80
2018-08-27T13:46:27.173Z,5.00
2018-08-27T13:48:57.223Z,4.70
2018-08-27T13:51:32.453Z,4.07
2018-08-27T13:54:02.504Z,2.87
2018-08-27T13:56:32.548Z,3.27
2018-08-27T13:59:02.697Z,3.97
2018-08-27T14:01:32.701Z,2.70
2018-08-27T14:04:02.793Z,1.70
2018-08-27T14:06:32.908Z,1.40
2018-08-27T14:09:03.040Z,1.60
2018-08-27T14:11:33.010Z,1.37
2018-08-27T14:14:03.097Z,1.80
2018-08-27T14:16:33.145Z,2.33
2018-08-27T14:19:03.306Z,1.97
2018-08-27T14:21:33.310Z,2.03
2018-08-27T14:24:03.533Z,1.30
2018-08-27T14:26:33.724Z,1.50
2018-08-27T14:29:03.710Z,1.80
2018-08-27T14:31:33.709Z,1.53
2018-08-27T14:34:03.783Z,1.30
2018-08-27T14:36:33.792Z,1.13
2018-08-27T14:39:04.335Z,1.60
2018-08-27T14:41:34.391Z,1.70
2018-08-27T14:44:04.397Z,2.07
2018-08-27T14:46:34.421Z,1.20
2018-08-27T14:49:04.379Z,1.67
2018-08-27T14:51:34.471Z,1.20
2018-08-27T14:54:04.453Z,1.17
2018-08-27T14:56:34.567Z,1.30
2018-08-27T14:59:04.652Z,1.20
2018-08-27T15:01:34.733Z,1.70
2018-08-27T15:04:04.681Z,0.97
2018-08-27T15:06:34.667Z,1.53
2018-08-27T15:09:05.852Z,1.30
2018-08-27T15:11:36.081Z,1.20
2018-08-27T15:14:06.051Z,1.50
2018-08-27T15:16:36.133Z,1.40
2018-08-27T15:19:06.334Z,1.50
2018-08-27T15:21:36.349Z,1.20
2018-08-27T15:24:06.461Z,1.20
2018-08-27T15:26:36.525Z,1.40
2018-08-27T15:29:06.596Z,1.80
2018-08-27T15:31:36.671Z,0.90
2018-08-27T15:34:07.064Z,1.43
2018-08-27T15:36:37.124Z,1.40
2018-08-27T15:39:09.624Z,1.20
2018-08-27T15:41:39.646Z,1.50
2018-08-27T15:44:09.640Z,1.30
2018-08-27T15:46:42.566Z,1.63
2018-08-27T15:49:13.132Z,1.33
2018-08-27T15:51:43.213Z,1.20
2018-08-27T15:54:13.410Z,1.40
2018-08-27T15:56:43.744Z,1.87
2018-08-27T15:59:14.347Z,1.20
2018-08-27T16:01:44.472Z,1.40
2018-08-27T16:04:14.800Z,2.20
2018-08-27T16:06:44.848Z,1.37
2018-08-27T16:09:14.986Z,1.87
2018-08-27T16:11:45.112Z,2.47
2018-08-27T16:14:15.202Z,1.33
2018-08-27T16:16:45.265Z,1.50
2018-08-27T16:19:15.659Z,1.90
2018-08-27T16:21:45.816Z,1.02
2018-08-27T16:24:20.416Z,1.20
2018-08-27T16:26:50.501Z,1.57
2018-08-27T16:29:20.731Z,1.50
2018-08-27T16:31:51.406Z,1.50
2018-08-27T16:34:21.589Z,1.40
2018-08-27T16:36:52.004Z,1.40
2018-08-27T16:39:22.059Z,1.00
2018-08-27T16:41:52.041Z,1.60
2018-08-27T16:44:21.992Z,1.30
2018-08-27T16:46:51.995Z,1.30
2018-08-27T16:49:21.972Z,1.20
2018-08-27T16:51:52.022Z,1.60
2018-08-27T16:54:21.985Z,1.40
2018-08-27T16:56:52.145Z,1.80
2018-08-27T16:59:22.123Z,1.40
2018-08-27T17:01:52.509Z,1.30
2018-08-27T17:04:22.513Z,1.50
2018-08-27T17:06:52.592Z,1.90
2018-08-27T17:09:22.584Z,1.62
2018-08-27T17:11:52.726Z,2.33
2018-08-27T17:14:22.720Z,1.80
2018-08-27T17:16:53.038Z,2.00
2018-08-27T17:19:23.190Z,1.50
2018-08-27T17:21:53.141Z,1.80
2018-08-27T17:24:23.788Z,1.77
2018-08-27T17:26:54.648Z,2.03
2018-08-27T17:29:25.945Z,2.10
2018-08-27T17:31:55.989Z,1.53
2018-08-27T17:34:25.968Z,1.30
2018-08-27T17:36:56.099Z,1.30
2018-08-27T17:39:26.164Z,1.73
2018-08-27T17:41:56.185Z,1.60
2018-08-27T17:44:26.168Z,2.10
2018-08-27T17:46:56.178Z,1.00
2018-08-27T17:49:26.222Z,1.60
2018-08-27T17:51:56.215Z,3.47
2018-08-27T17:54:26.204Z,2.73
2018-08-27T17:56:56.193Z,3.40
2018-08-27T17:59:26.217Z,2.20
2018-08-27T18:01:56.229Z,2.17
2018-08-27T18:04:26.241Z,1.57
2018-08-27T18:06:56.228Z,1.73
2018-08-27T18:09:26.273Z,2.30
2018-08-27T18:11:56.341Z,2.47
2018-08-27T18:14:26.937Z,1.60
2018-08-27T18:16:57.086Z,1.47
2018-08-27T18:19:27.063Z,1.23
2018-08-27T18:21:57.084Z,1.40
2018-08-27T18:24:27.069Z,1.87
2018-08-27T18:26:57.038Z,1.40
2018-08-27T18:29:27.060Z,1.50
2018-08-27T18:31:57.015Z,1.30
2018-08-27T18:34:26.953Z,2.23
2018-08-27T18:36:56.947Z,1.40
2018-08-27T18:39:26.933Z,1.90
2018-08-27T18:41:56.940Z,1.53
2018-08-27T18:44:26.925Z,1.60
2018-08-27T18:46:57.731Z,1.37
2018-08-27T18:49:27.717Z,1.60
2018-08-27T18:51:57.736Z,1.40
2018-08-27T18:54:27.669Z,2.23
2018-08-27T18:56:57.726Z,1.70
2018-08-27T18:59:27.766Z,2.70
2018-08-27T19:01:57.768Z,2.47
2018-08-27T19:04:27.736Z,2.77
2018-08-27T19:06:57.717Z,2.30
2018-08-27T19:09:27.655Z,2.77
2018-08-27T19:11:57.628Z,2.37
2018-08-27T19:14:27.601Z,2.63
2018-08-27T19:16:57.584Z,2.90
2018-08-27T19:19:27.553Z,3.00
2018-08-27T19:21:58.256Z,3.03
2018-08-27T19:24:28.367Z,3.27
2018-08-27T19:26:58.300Z,3.27
2018-08-27T19:29:28.253Z,3.20
2018-08-27T19:31:58.280Z,3.13
2018-08-27T19:34:28.257Z,3.00
2018-08-27T19:36:58.378Z,3.83
2018-08-27T19:39:28.270Z,3.50
2018-08-27T19:42:01.097Z,3.30
2018-08-27T19:44:31.198Z,3.60
2018-08-27T19:47:01.417Z,3.20
2018-08-27T19:49:31.369Z,3.57
2018-08-27T19:52:01.361Z,2.70
2018-08-27T19:54:31.362Z,2.83
2018-08-27T19:57:01.396Z,3.10
2018-08-27T19:59:31.436Z,3.70
2018-08-27T20:02:01.440Z,3.10
2018-08-27T20:04:31.397Z,2.80
2018-08-27T20:07:01.422Z,3.00
2018-08-27T20:09:31.429Z,3.43
2018-08-27T20:12:01.435Z,3.00
2018-08-27T20:14:31.451Z,3.50
2018-08-27T20:17:01.492Z,3.20
2018-08-27T20:19:31.542Z,3.23
2018-08-27T20:22:01.508Z,3.37
2018-08-27T20:24:31.527Z,2.70
2018-08-27T20:27:01.524Z,3.40
2018-08-27T20:29:31.567Z,3.13
2018-08-27T20:32:01.613Z,2.90
2018-08-27T20:34:31.670Z,2.87
2018-08-27T20:37:01.648Z,3.60
2018-08-27T20:39:31.643Z,4.03
2018-08-27T20:42:01.689Z,3.90
2018-08-27T20:44:31.718Z,4.90
2018-08-27T20:47:01.747Z,4.30
2018-08-27T20:49:31.856Z,4.97
2018-08-27T20:52:01.841Z,4.50
2018-08-27T20:54:31.797Z,4.20
2018-08-27T20:57:01.847Z,5.60
2018-08-27T20:59:31.863Z,5.20
2018-08-27T21:02:02.021Z,5.37
2018-08-27T21:04:32.021Z,5.10
2018-08-27T21:07:01.986Z,6.17
2018-08-27T21:09:32.077Z,5.60
2018-08-27T21:12:02.084Z,6.20
2018-08-27T21:15:08.458Z,6.20
2018-08-27T21:17:39.212Z,6.00
2018-08-27T21:20:11.356Z,5.97
2018-08-27T21:22:41.481Z,6.57
2018-08-27T21:25:12.332Z,5.63
2018-08-27T21:27:43.224Z,6.57
2018-08-27T21:30:14.741Z,5.60
2018-08-27T21:32:44.803Z,6.00
2018-08-27T21:35:14.877Z,5.47
2018-08-27T21:37:44.924Z,5.77
2018-08-27T21:40:14.934Z,6.20
2018-08-27T21:42:44.986Z,5.90
2018-08-27T21:45:14.993Z,6.17
2018-08-27T21:47:44.973Z,5.73
2018-08-27T21:50:15.028Z,5.97
2018-08-27T21:52:45.093Z,6.03
2018-08-27T21:55:15.088Z,6.30
2018-08-27T21:57:45.076Z,6.50
2018-08-27T22:00:15.144Z,6.03
2018-08-27T22:02:50.380Z,6.03
2018-08-27T22:05:20.417Z,5.20
2018-08-27T22:07:50.561Z,5.20
2018-08-27T22:10:20.695Z,4.87
2018-08-27T22:12:50.640Z,5.90
2018-08-27T22:15:20.580Z,4.67
2018-08-27T22:17:50.576Z,4.53
2018-08-27T22:20:20.585Z,5.00
2018-08-27T22:22:50.549Z,5.27
2018-08-27T22:25:20.504Z,4.43
2018-08-27T22:27:50.492Z,6.23
2018-08-27T22:30:20.488Z,5.20
2018-08-27T22:32:50.508Z,5.30
2018-08-27T22:35:20.547Z,5.37
2018-08-27T22:37:50.516Z,5.63
2018-08-27T22:40:20.540Z,5.00
2018-08-27T22:42:50.503Z,4.30
2018-08-27T22:45:20.449Z,5.57
2018-08-27T22:47:50.403Z,5.77
2018-08-27T22:50:20.401Z,5.13
2018-08-27T22:52:50.389Z,6.33
2018-08-27T22:55:20.479Z,5.53
2018-08-27T22:57:50.428Z,5.20
2018-08-27T23:00:24.560Z,5.70
2018-08-27T23:03:00.868Z,5.43
2018-08-27T23:05:30.957Z,5.47
2018-08-27T23:08:00.989Z,6.37
2018-08-27T23:10:31.028Z,5.23
2018-08-27T23:13:01.045Z,5.90
2018-08-27T23:15:31.068Z,4.83
2018-08-27T23:18:01.032Z,4.83
2018-08-27T23:20:31.147Z,6.20
2018-08-27T23:23:01.085Z,5.93
2018-08-27T23:25:31.129Z,5.03
2018-08-27T23:28:01.143Z,5.00
2018-08-27T23:30:31.105Z,5.47
2018-08-27T23:33:01.200Z,5.03
2018-08-27T23:35:31.260Z,4.70
2018-08-27T23:38:01.248Z,5.20
2018-08-27T23:40:31.342Z,5.50
2018-08-27T23:43:01.333Z,5.63
2018-08-27T23:45:31.320Z,4.83
2018-08-27T23:48:01.375Z,6.00
2018-08-27T23:50:31.364Z,5.13
2018-08-27T23:53:01.367Z,4.67
2018-08-27T23:55:31.316Z,5.17
2018-08-27T23:58:01.272Z,5.77
